sensor_id;sensor_type;location;lat;lon;timestamp;P1;durP1;ratioP1;P2;durP2;ratioP2
12908;SDS011;6522;49.622;6.126;2022-10-03T00:01:53;93.57;;;14.67;;
12908;SDS011;6522;49.622;6.126;2022-10-03T00:16:47;94.45;;;14.43;;
12908;SDS011;6522;49.622;6.126;2022-10-03T00:22:36;92.32;;;14.48;;
12908;SDS011;6522;49.622;6.126;2022-10-03T00:31:08;251.15;;;26.45;;
12908;SDS011;6522;49.622;6.126;2022-10-03T00:36:52;86.78;;;16.30;;
12908;SDS011;6522;49.622;6.126;2022-10-03T00:39:48;205.35;;;20.70;;
12908;SDS011;6522;49.622;6.126;2022-10-03T00:45:43;131.32;;;18.55;;
12908;SDS011;6522;49.622;6.126;2022-10-03T01:00:16;167.82;;;21.05;;
12908;SDS011;6522;49.622;6.126;2022-10-03T01:03:20;97.22;;;17.35;;
12908;SDS011;6522;49.622;6.126;2022-10-03T01:09:19;117.22;;;18.85;;
12908;SDS011;6522;49.622;6.126;2022-10-03T01:12:12;104.35;;;17.20;;
12908;SDS011;6522;49.622;6.126;2022-10-03T01:14:59;264.02;;;26.48;;
12908;SDS011;6522;49.622;6.126;2022-10-03T01:17:59;253.70;;;25.95;;
12908;SDS011;6522;49.622;6.126;2022-10-03T01:23:44;143.57;;;18.15;;
12908;SDS011;6522;49.622;6.126;2022-10-03T01:32:51;162.20;;;18.80;;
12908;SDS011;6522;49.622;6.126;2022-10-03T01:38:28;189.90;;;27.30;;
12908;SDS011;6522;49.622;6.126;2022-10-03T01:41:56;128.02;;;22.42;;
12908;SDS011;6522;49.622;6.126;2022-10-03T01:44:11;277.13;;;35.80;;
12908;SDS011;6522;49.622;6.126;2022-10-03T01:50:03;224.23;;;29.75;;
12908;SDS011;6522;49.622;6.126;2022-10-03T01:52:52;314.75;;;38.15;;
12908;SDS011;6522;49.622;6.126;2022-10-03T01:58:51;290.00;;;32.78;;
12908;SDS011;6522;49.622;6.126;2022-10-03T02:01:38;312.33;;;32.45;;
12908;SDS011;6522;49.622;6.126;2022-10-03T02:10:40;301.45;;;30.10;;
12908;SDS011;6522;49.622;6.126;2022-10-03T02:13:47;192.52;;;21.27;;
12908;SDS011;6522;49.622;6.126;2022-10-03T02:16:39;231.50;;;22.23;;
12908;SDS011;6522;49.622;6.126;2022-10-03T02:19:28;201.18;;;23.70;;
12908;SDS011;6522;49.622;6.126;2022-10-03T02:22:14;219.00;;;25.20;;
12908;SDS011;6522;49.622;6.126;2022-10-03T02:25:07;271.62;;;32.63;;
12908;SDS011;6522;49.622;6.126;2022-10-03T02:27:55;164.27;;;21.70;;
12908;SDS011;6522;49.622;6.126;2022-10-03T02:33:51;238.37;;;28.77;;
12908;SDS011;6522;49.622;6.126;2022-10-03T02:36:52;251.05;;;22.65;;
12908;SDS011;6522;49.622;6.126;2022-10-03T02:39:38;144.50;;;17.92;;
12908;SDS011;6522;49.622;6.126;2022-10-03T02:45:35;100.28;;;17.80;;
12908;SDS011;6522;49.622;6.126;2022-10-03T02:48:38;162.55;;;32.50;;
12908;SDS011;6522;49.622;6.126;2022-10-03T02:54:36;44.45;;;12.70;;
12908;SDS011;6522;49.622;6.126;2022-10-03T03:00:19;108.20;;;20.37;;
12908;SDS011;6522;49.622;6.126;2022-10-03T03:06:02;205.70;;;21.15;;
12908;SDS011;6522;49.622;6.126;2022-10-03T03:08:52;212.25;;;26.73;;
12908;SDS011;6522;49.622;6.126;2022-10-03T03:11:43;174.77;;;21.35;;
12908;SDS011;6522;49.622;6.126;2022-10-03T03:17:38;155.65;;;23.48;;
12908;SDS011;6522;49.622;6.126;2022-10-03T03:23:21;109.07;;;17.02;;
12908;SDS011;6522;49.622;6.126;2022-10-03T03:26:10;137.55;;;18.12;;
12908;SDS011;6522;49.622;6.126;2022-10-03T03:29:05;56.42;;;12.73;;
12908;SDS011;6522;49.622;6.126;2022-10-03T03:32:09;74.18;;;17.48;;
12908;SDS011;6522;49.622;6.126;2022-10-03T03:43:48;122.43;;;18.20;;
12908;SDS011;6522;49.622;6.126;2022-10-03T03:46:44;99.03;;;13.23;;
12908;SDS011;6522;49.622;6.126;2022-10-03T03:52:27;166.55;;;18.00;;
12908;SDS011;6522;49.622;6.126;2022-10-03T04:04:11;126.00;;;23.77;;
12908;SDS011;6522;49.622;6.126;2022-10-03T04:06:59;141.20;;;18.30;;
12908;SDS011;6522;49.622;6.126;2022-10-03T04:09:50;88.62;;;14.90;;
12908;SDS011;6522;49.622;6.126;2022-10-03T04:18:31;236.00;;;23.62;;
12908;SDS011;6522;49.622;6.126;2022-10-03T04:24:43;136.48;;;22.90;;
12908;SDS011;6522;49.622;6.126;2022-10-03T04:27:51;118.28;;;15.70;;
12908;SDS011;6522;49.622;6.126;2022-10-03T04:30:44;141.98;;;20.35;;
12908;SDS011;6522;49.622;6.126;2022-10-03T04:33:42;220.48;;;21.87;;
12908;SDS011;6522;49.622;6.126;2022-10-03T04:39:40;141.68;;;18.90;;
12908;SDS011;6522;49.622;6.126;2022-10-03T04:45:17;154.77;;;19.48;;
12908;SDS011;6522;49.622;6.126;2022-10-03T04:54:15;231.93;;;30.42;;
12908;SDS011;6522;49.622;6.126;2022-10-03T05:00:25;430.87;;;53.65;;
12908;SDS011;6522;49.622;6.126;2022-10-03T05:03:15;303.27;;;28.35;;
12908;SDS011;6522;49.622;6.126;2022-10-03T05:12:14;272.20;;;28.75;;
12908;SDS011;6522;49.622;6.126;2022-10-03T05:15:01;300.85;;;30.05;;
12908;SDS011;6522;49.622;6.126;2022-10-03T05:20:53;327.52;;;30.40;;
12908;SDS011;6522;49.622;6.126;2022-10-03T05:32:56;304.25;;;28.33;;
12908;SDS011;6522;49.622;6.126;2022-10-03T05:35:58;364.90;;;35.20;;
12908;SDS011;6522;49.622;6.126;2022-10-03T05:38:51;323.38;;;33.70;;
12908;SDS011;6522;49.622;6.126;2022-10-03T05:41:34;208.43;;;20.50;;
12908;SDS011;6522;49.622;6.126;2022-10-03T05:44:27;265.67;;;22.23;;
12908;SDS011;6522;49.622;6.126;2022-10-03T05:47:21;439.20;;;49.22;;
12908;SDS011;6522;49.622;6.126;2022-10-03T05:53:35;296.85;;;29.45;;
12908;SDS011;6522;49.622;6.126;2022-10-03T05:56:20;252.68;;;26.90;;
12908;SDS011;6522;49.622;6.126;2022-10-03T06:05:19;224.77;;;25.10;;
12908;SDS011;6522;49.622;6.126;2022-10-03T06:16:59;370.83;;;35.25;;
12908;SDS011;6522;49.622;6.126;2022-10-03T06:22:50;181.20;;;19.42;;
12908;SDS011;6522;49.622;6.126;2022-10-03T06:25:48;243.12;;;27.70;;
12908;SDS011;6522;49.622;6.126;2022-10-03T06:28:36;253.40;;;32.25;;
12908;SDS011;6522;49.622;6.126;2022-10-03T06:49:26;162.20;;;19.58;;
12908;SDS011;6522;49.622;6.126;2022-10-03T06:52:29;153.27;;;20.90;;
12908;SDS011;6522;49.622;6.126;2022-10-03T06:55:20;250.45;;;27.73;;
12908;SDS011;6522;49.622;6.126;2022-10-03T07:06:52;103.40;;;14.43;;
12908;SDS011;6522;49.622;6.126;2022-10-03T07:15:33;83.35;;;13.05;;
12908;SDS011;6522;49.622;6.126;2022-10-03T07:21:15;112.43;;;18.30;;
12908;SDS011;6522;49.622;6.126;2022-10-03T07:24:01;97.93;;;17.40;;
12908;SDS011;6522;49.622;6.126;2022-10-03T07:26:59;123.32;;;16.58;;
12908;SDS011;6522;49.622;6.126;2022-10-03T07:32:56;101.50;;;15.32;;
12908;SDS011;6522;49.622;6.126;2022-10-03T07:41:56;51.30;;;13.77;;
12908;SDS011;6522;49.622;6.126;2022-10-03T07:44:50;16.23;;;9.10;;
12908;SDS011;6522;49.622;6.126;2022-10-03T07:50:55;19.27;;;9.07;;
12908;SDS011;6522;49.622;6.126;2022-10-03T07:56:45;23.52;;;9.15;;
12908;SDS011;6522;49.622;6.126;2022-10-03T07:59:47;16.70;;;9.35;;
12908;SDS011;6522;49.622;6.126;2022-10-03T08:02:50;22.50;;;9.68;;
12908;SDS011;6522;49.622;6.126;2022-10-03T08:11:28;35.75;;;8.68;;
12908;SDS011;6522;49.622;6.126;2022-10-03T08:17:37;9.68;;;7.30;;
12908;SDS011;6522;49.622;6.126;2022-10-03T08:26:18;11.68;;;7.15;;
12908;SDS011;6522;49.622;6.126;2022-10-03T08:35:17;10.60;;;8.50;;
12908;SDS011;6522;49.622;6.126;2022-10-03T08:38:06;10.85;;;7.70;;
12908;SDS011;6522;49.622;6.126;2022-10-03T08:40:57;12.77;;;7.85;;
12908;SDS011;6522;49.622;6.126;2022-10-03T08:46:42;11.30;;;8.80;;
12908;SDS011;6522;49.622;6.126;2022-10-03T08:52:24;9.63;;;8.63;;
12908;SDS011;6522;49.622;6.126;2022-10-03T09:07:07;9.80;;;8.80;;
12908;SDS011;6522;49.622;6.126;2022-10-03T09:10:04;9.20;;;8.23;;
12908;SDS011;6522;49.622;6.126;2022-10-03T09:18:57;10.68;;;9.68;;
12908;SDS011;6522;49.622;6.126;2022-10-03T09:21:44;10.70;;;9.80;;
12908;SDS011;6522;49.622;6.126;2022-10-03T09:44:58;9.05;;;8.25;;
12908;SDS011;6522;49.622;6.126;2022-10-03T09:47:50;9.73;;;8.48;;
12908;SDS011;6522;49.622;6.126;2022-10-03T09:50:40;15.48;;;7.70;;
12908;SDS011;6522;49.622;6.126;2022-10-03T09:53:32;9.20;;;7.93;;
12908;SDS011;6522;49.622;6.126;2022-10-03T10:14:30;11.60;;;10.80;;
12908;SDS011;6522;49.622;6.126;2022-10-03T10:17:40;17.77;;;13.57;;
12908;SDS011;6522;49.622;6.126;2022-10-03T10:23:46;17.97;;;16.70;;
12908;SDS011;6522;49.622;6.126;2022-10-03T10:26:47;17.05;;;15.90;;
12908;SDS011;6522;49.622;6.126;2022-10-03T10:30:30;19.77;;;18.37;;
12908;SDS011;6522;49.622;6.126;2022-10-03T10:35:40;18.97;;;17.87;;
12908;SDS011;6522;49.622;6.126;2022-10-03T10:38:29;19.60;;;18.50;;
12908;SDS011;6522;49.622;6.126;2022-10-03T10:47:34;21.50;;;20.30;;
12908;SDS011;6522;49.622;6.126;2022-10-03T10:57:04;22.00;;;20.50;;
12908;SDS011;6522;49.622;6.126;2022-10-03T11:02:36;21.30;;;19.70;;
12908;SDS011;6522;49.622;6.126;2022-10-03T11:23:38;19.20;;;17.90;;
12908;SDS011;6522;49.622;6.126;2022-10-03T11:29:31;19.50;;;18.50;;
12908;SDS011;6522;49.622;6.126;2022-10-03T11:38:28;20.00;;;19.00;;
12908;SDS011;6522;49.622;6.126;2022-10-03T11:44:12;17.30;;;16.10;;
12908;SDS011;6522;49.622;6.126;2022-10-03T11:53:21;18.80;;;17.60;;
12908;SDS011;6522;49.622;6.126;2022-10-03T11:56:26;19.00;;;17.87;;
12908;SDS011;6522;49.622;6.126;2022-10-03T11:59:20;18.87;;;17.43;;
12908;SDS011;6522;49.622;6.126;2022-10-03T12:04:53;18.43;;;17.40;;
12908;SDS011;6522;49.622;6.126;2022-10-03T12:08:00;18.60;;;17.60;;
12908;SDS011;6522;49.622;6.126;2022-10-03T12:14:13;19.40;;;18.33;;
12908;SDS011;6522;49.622;6.126;2022-10-03T12:22:57;20.27;;;19.07;;
12908;SDS011;6522;49.622;6.126;2022-10-03T12:25:41;20.27;;;19.10;;
12908;SDS011;6522;49.622;6.126;2022-10-03T12:28:31;17.27;;;16.25;;
12908;SDS011;6522;49.622;6.126;2022-10-03T12:40:22;16.90;;;16.00;;
12908;SDS011;6522;49.622;6.126;2022-10-03T12:43:15;20.70;;;19.50;;
12908;SDS011;6522;49.622;6.126;2022-10-03T12:45:57;18.40;;;17.00;;
12908;SDS011;6522;49.622;6.126;2022-10-03T12:48:46;20.60;;;19.60;;
12908;SDS011;6522;49.622;6.126;2022-10-03T12:51:50;18.10;;;16.70;;
12908;SDS011;6522;49.622;6.126;2022-10-03T13:09:44;20.87;;;19.80;;
12908;SDS011;6522;49.622;6.126;2022-10-03T13:12:35;17.70;;;16.60;;
12908;SDS011;6522;49.622;6.126;2022-10-03T13:21:46;22.20;;;20.70;;
12908;SDS011;6522;49.622;6.126;2022-10-03T13:25:20;22.20;;;21.00;;
12908;SDS011;6522;49.622;6.126;2022-10-03T13:30:20;22.60;;;21.27;;
12908;SDS011;6522;49.622;6.126;2022-10-03T13:33:16;21.80;;;20.70;;
12908;SDS011;6522;49.622;6.126;2022-10-03T13:36:04;22.13;;;21.03;;
12908;SDS011;6522;49.622;6.126;2022-10-03T13:44:38;21.23;;;19.97;;
12908;SDS011;6522;49.622;6.126;2022-10-03T13:53:38;19.30;;;18.23;;
12908;SDS011;6522;49.622;6.126;2022-10-03T13:55:53;17.15;;;16.05;;
12908;SDS011;6522;49.622;6.126;2022-10-03T14:01:55;19.13;;;18.03;;
12908;SDS011;6522;49.622;6.126;2022-10-03T14:04:42;20.50;;;19.30;;
12908;SDS011;6522;49.622;6.126;2022-10-03T14:07:31;18.80;;;17.63;;
12908;SDS011;6522;49.622;6.126;2022-10-03T14:10:21;19.43;;;18.33;;
12908;SDS011;6522;49.622;6.126;2022-10-03T14:19:14;20.33;;;18.83;;
12908;SDS011;6522;49.622;6.126;2022-10-03T14:28:09;19.20;;;18.10;;
12908;SDS011;6522;49.622;6.126;2022-10-03T14:31:20;19.53;;;18.43;;
12908;SDS011;6522;49.622;6.126;2022-10-03T14:33:48;16.40;;;15.35;;
12908;SDS011;6522;49.622;6.126;2022-10-03T14:36:38;18.93;;;17.83;;
12908;SDS011;6522;49.622;6.126;2022-10-03T14:39:39;16.50;;;15.50;;
12908;SDS011;6522;49.622;6.126;2022-10-03T14:42:26;19.30;;;18.10;;
12908;SDS011;6522;49.622;6.126;2022-10-03T14:45:12;15.67;;;14.57;;
12908;SDS011;6522;49.622;6.126;2022-10-03T14:48:05;18.50;;;17.20;;
12908;SDS011;6522;49.622;6.126;2022-10-03T14:50:51;15.80;;;14.90;;
12908;SDS011;6522;49.622;6.126;2022-10-03T14:53:37;16.30;;;15.05;;
12908;SDS011;6522;49.622;6.126;2022-10-03T14:56:24;18.10;;;17.30;;
12908;SDS011;6522;49.622;6.126;2022-10-03T14:59:11;18.87;;;17.87;;
12908;SDS011;6522;49.622;6.126;2022-10-03T15:01:58;15.32;;;14.43;;
12908;SDS011;6522;49.622;6.126;2022-10-03T15:04:44;18.40;;;17.40;;
12908;SDS011;6522;49.622;6.126;2022-10-03T15:07:38;18.47;;;17.47;;
12908;SDS011;6522;49.622;6.126;2022-10-03T15:10:24;15.77;;;14.57;;
12908;SDS011;6522;49.622;6.126;2022-10-03T15:13:11;17.40;;;16.50;;
12908;SDS011;6522;49.622;6.126;2022-10-03T15:15:57;17.83;;;16.93;;
12908;SDS011;6522;49.622;6.126;2022-10-03T15:18:50;18.30;;;17.30;;
12908;SDS011;6522;49.622;6.126;2022-10-03T15:21:31;14.20;;;13.20;;
12908;SDS011;6522;49.622;6.126;2022-10-03T15:24:21;18.27;;;17.23;;
12908;SDS011;6522;49.622;6.126;2022-10-03T15:27:08;16.08;;;15.18;;
12908;SDS011;6522;49.622;6.126;2022-10-03T15:29:58;18.47;;;17.60;;
12908;SDS011;6522;49.622;6.126;2022-10-03T15:32:40;14.83;;;14.03;;
12908;SDS011;6522;49.622;6.126;2022-10-03T15:35:27;15.90;;;14.80;;
12908;SDS011;6522;49.622;6.126;2022-10-03T15:38:15;18.03;;;17.13;;
12908;SDS011;6522;49.622;6.126;2022-10-03T15:41:08;15.82;;;14.93;;
12908;SDS011;6522;49.622;6.126;2022-10-03T15:43:55;15.70;;;14.80;;
12908;SDS011;6522;49.622;6.126;2022-10-03T15:46:42;19.03;;;17.73;;
12908;SDS011;6522;49.622;6.126;2022-10-03T15:49:38;16.50;;;15.40;;
12908;SDS011;6522;49.622;6.126;2022-10-03T15:55:18;18.23;;;17.33;;
12908;SDS011;6522;49.622;6.126;2022-10-03T15:58:01;15.63;;;14.73;;
12908;SDS011;6522;49.622;6.126;2022-10-03T16:01:21;15.10;;;14.20;;
12908;SDS011;6522;49.622;6.126;2022-10-03T16:03:41;18.00;;;16.80;;
12908;SDS011;6522;49.622;6.126;2022-10-03T16:06:33;14.15;;;13.20;;
12908;SDS011;6522;49.622;6.126;2022-10-03T16:09:22;14.00;;;13.20;;
12908;SDS011;6522;49.622;6.126;2022-10-03T16:15:12;13.20;;;12.27;;
12908;SDS011;6522;49.622;6.126;2022-10-03T16:17:57;13.30;;;12.50;;
12908;SDS011;6522;49.622;6.126;2022-10-03T16:20:44;16.83;;;15.90;;
12908;SDS011;6522;49.622;6.126;2022-10-03T16:23:39;13.90;;;12.90;;
12908;SDS011;6522;49.622;6.126;2022-10-03T16:29:11;16.47;;;15.57;;
12908;SDS011;6522;49.622;6.126;2022-10-03T16:31:57;14.13;;;12.98;;
12908;SDS011;6522;49.622;6.126;2022-10-03T16:34:40;16.63;;;15.43;;
12908;SDS011;6522;49.622;6.126;2022-10-03T16:37:27;13.60;;;12.60;;
12908;SDS011;6522;49.622;6.126;2022-10-03T16:40:17;13.60;;;12.40;;
12908;SDS011;6522;49.622;6.126;2022-10-03T16:43:00;14.73;;;13.50;;
12908;SDS011;6522;49.622;6.126;2022-10-03T16:45:47;11.65;;;10.80;;
12908;SDS011;6522;49.622;6.126;2022-10-03T16:48:34;14.68;;;13.48;;
12908;SDS011;6522;49.622;6.126;2022-10-03T16:51:44;12.88;;;11.98;;
12908;SDS011;6522;49.622;6.126;2022-10-03T16:54:29;12.90;;;11.75;;
12908;SDS011;6522;49.622;6.126;2022-10-03T16:57:20;8.07;;;7.47;;
12908;SDS011;6522;49.622;6.126;2022-10-03T17:00:02;11.20;;;10.50;;
12908;SDS011;6522;49.622;6.126;2022-10-03T17:02:50;11.10;;;10.40;;
12908;SDS011;6522;49.622;6.126;2022-10-03T17:05:39;9.90;;;9.20;;
12908;SDS011;6522;49.622;6.126;2022-10-03T17:08:24;10.00;;;9.05;;
12908;SDS011;6522;49.622;6.126;2022-10-03T17:11:11;8.50;;;7.80;;
12908;SDS011;6522;49.622;6.126;2022-10-03T17:13:58;7.62;;;7.00;;
12908;SDS011;6522;49.622;6.126;2022-10-03T17:16:49;7.18;;;6.68;;
12908;SDS011;6522;49.622;6.126;2022-10-03T17:19:40;8.77;;;6.57;;
12908;SDS011;6522;49.622;6.126;2022-10-03T17:22:28;6.60;;;5.90;;
12908;SDS011;6522;49.622;6.126;2022-10-03T17:28:04;6.32;;;5.82;;
12908;SDS011;6522;49.622;6.126;2022-10-03T17:30:53;5.07;;;4.68;;
12908;SDS011;6522;49.622;6.126;2022-10-03T17:33:40;7.50;;;5.20;;
12908;SDS011;6522;49.622;6.126;2022-10-03T17:45:23;7.37;;;4.53;;
12908;SDS011;6522;49.622;6.126;2022-10-03T17:48:21;7.87;;;3.92;;
12908;SDS011;6522;49.622;6.126;2022-10-03T18:00:07;5.57;;;4.30;;
12908;SDS011;6522;49.622;6.126;2022-10-03T18:02:54;4.25;;;3.60;;
12908;SDS011;6522;49.622;6.126;2022-10-03T18:05:41;7.43;;;3.62;;
12908;SDS011;6522;49.622;6.126;2022-10-03T18:08:36;5.05;;;3.45;;
12908;SDS011;6522;49.622;6.126;2022-10-03T18:11:19;6.30;;;3.95;;
12908;SDS011;6522;49.622;6.126;2022-10-03T18:14:10;4.30;;;3.70;;
12908;SDS011;6522;49.622;6.126;2022-10-03T18:16:53;7.03;;;3.80;;
12908;SDS011;6522;49.622;6.126;2022-10-03T18:19:47;6.03;;;3.80;;
12908;SDS011;6522;49.622;6.126;2022-10-03T18:22:31;5.45;;;3.55;;
12908;SDS011;6522;49.622;6.126;2022-10-03T18:25:25;5.40;;;4.20;;
12908;SDS011;6522;49.622;6.126;2022-10-03T18:28:49;4.95;;;3.25;;
12908;SDS011;6522;49.622;6.126;2022-10-03T18:31:18;5.57;;;3.50;;
12908;SDS011;6522;49.622;6.126;2022-10-03T18:34:08;6.65;;;4.65;;
12908;SDS011;6522;49.622;6.126;2022-10-03T18:36:54;5.78;;;4.43;;
12908;SDS011;6522;49.622;6.126;2022-10-03T18:39:41;6.20;;;3.40;;
12908;SDS011;6522;49.622;6.126;2022-10-03T18:42:28;5.35;;;3.40;;
12908;SDS011;6522;49.622;6.126;2022-10-03T18:45:18;5.30;;;4.25;;
12908;SDS011;6522;49.622;6.126;2022-10-03T18:48:11;7.25;;;4.12;;
12908;SDS011;6522;49.622;6.126;2022-10-03T18:51:11;7.62;;;4.10;;
12908;SDS011;6522;49.622;6.126;2022-10-03T18:54:08;8.07;;;3.55;;
12908;SDS011;6522;49.622;6.126;2022-10-03T18:57:00;4.75;;;4.03;;
12908;SDS011;6522;49.622;6.126;2022-10-03T18:59:53;5.20;;;4.10;;
12908;SDS011;6522;49.622;6.126;2022-10-03T19:05:36;8.40;;;4.25;;
12908;SDS011;6522;49.622;6.126;2022-10-03T19:08:19;8.45;;;4.32;;
12908;SDS011;6522;49.622;6.126;2022-10-03T19:11:14;6.30;;;3.20;;
12908;SDS011;6522;49.622;6.126;2022-10-03T19:14:05;5.87;;;3.40;;
12908;SDS011;6522;49.622;6.126;2022-10-03T19:16:57;7.55;;;4.32;;
12908;SDS011;6522;49.622;6.126;2022-10-03T19:20:26;13.07;;;3.62;;
12908;SDS011;6522;49.622;6.126;2022-10-03T19:22:29;5.40;;;4.20;;
12908;SDS011;6522;49.622;6.126;2022-10-03T19:25:20;6.97;;;2.95;;
12908;SDS011;6522;49.622;6.126;2022-10-03T19:31:23;5.85;;;3.95;;
12908;SDS011;6522;49.622;6.126;2022-10-03T19:34:13;9.40;;;4.20;;
12908;SDS011;6522;49.622;6.126;2022-10-03T19:36:56;5.90;;;4.47;;
12908;SDS011;6522;49.622;6.126;2022-10-03T19:39:43;9.60;;;3.47;;
12908;SDS011;6522;49.622;6.126;2022-10-03T19:42:39;8.40;;;4.15;;
12908;SDS011;6522;49.622;6.126;2022-10-03T19:45:22;8.50;;;3.53;;
12908;SDS011;6522;49.622;6.126;2022-10-03T19:48:09;9.75;;;4.28;;
12908;SDS011;6522;49.622;6.126;2022-10-03T19:50:56;5.40;;;4.25;;
12908;SDS011;6522;49.622;6.126;2022-10-03T19:53:43;7.37;;;4.25;;
12908;SDS011;6522;49.622;6.126;2022-10-03T19:56:30;7.10;;;3.90;;
12908;SDS011;6522;49.622;6.126;2022-10-03T19:59:16;5.93;;;4.70;;
12908;SDS011;6522;49.622;6.126;2022-10-03T20:02:04;7.85;;;5.57;;
12908;SDS011;6522;49.622;6.126;2022-10-03T20:04:50;8.02;;;4.55;;
12908;SDS011;6522;49.622;6.126;2022-10-03T20:07:40;10.15;;;5.18;;
12908;SDS011;6522;49.622;6.126;2022-10-03T20:10:35;8.45;;;5.57;;
12908;SDS011;6522;49.622;6.126;2022-10-03T20:13:19;6.03;;;4.78;;
12908;SDS011;6522;49.622;6.126;2022-10-03T20:16:07;7.03;;;5.20;;
12908;SDS011;6522;49.622;6.126;2022-10-03T20:18:52;9.85;;;5.35;;
12908;SDS011;6522;49.622;6.126;2022-10-03T20:21:39;6.95;;;5.50;;
12908;SDS011;6522;49.622;6.126;2022-10-03T20:24:35;16.00;;;5.55;;
12908;SDS011;6522;49.622;6.126;2022-10-03T20:30:25;8.23;;;5.35;;
12908;SDS011;6522;49.622;6.126;2022-10-03T20:33:17;8.45;;;4.65;;
12908;SDS011;6522;49.622;6.126;2022-10-03T20:36:12;7.18;;;5.93;;
12908;SDS011;6522;49.622;6.126;2022-10-03T20:41:59;9.35;;;6.25;;
12908;SDS011;6522;49.622;6.126;2022-10-03T20:44:52;6.45;;;3.90;;
12908;SDS011;6522;49.622;6.126;2022-10-03T20:47:42;7.85;;;5.10;;
12908;SDS011;6522;49.622;6.126;2022-10-03T20:50:26;8.13;;;4.50;;
12908;SDS011;6522;49.622;6.126;2022-10-03T20:53:20;5.75;;;4.20;;
12908;SDS011;6522;49.622;6.126;2022-10-03T20:56:08;7.75;;;4.37;;
12908;SDS011;6522;49.622;6.126;2022-10-03T20:58:54;6.70;;;4.80;;
12908;SDS011;6522;49.622;6.126;2022-10-03T21:01:40;6.22;;;4.80;;
12908;SDS011;6522;49.622;6.126;2022-10-03T21:04:30;7.65;;;5.12;;
12908;SDS011;6522;49.622;6.126;2022-10-03T21:07:18;10.52;;;5.47;;
12908;SDS011;6522;49.622;6.126;2022-10-03T21:10:02;8.85;;;5.53;;
12908;SDS011;6522;49.622;6.126;2022-10-03T21:12:48;8.52;;;5.55;;
12908;SDS011;6522;49.622;6.126;2022-10-03T21:18:31;10.45;;;5.47;;
12908;SDS011;6522;49.622;6.126;2022-10-03T21:21:20;6.55;;;5.75;;
12908;SDS011;6522;49.622;6.126;2022-10-03T21:26:54;6.40;;;5.37;;
12908;SDS011;6522;49.622;6.126;2022-10-03T21:29:37;7.40;;;5.80;;
12908;SDS011;6522;49.622;6.126;2022-10-03T21:35:30;11.70;;;6.12;;
12908;SDS011;6522;49.622;6.126;2022-10-03T21:38:18;9.80;;;5.75;;
12908;SDS011;6522;49.622;6.126;2022-10-03T21:41:13;12.40;;;7.28;;
12908;SDS011;6522;49.622;6.126;2022-10-03T21:43:56;9.75;;;7.12;;
12908;SDS011;6522;49.622;6.126;2022-10-03T21:47:07;9.70;;;6.93;;
12908;SDS011;6522;49.622;6.126;2022-10-03T21:49:33;8.57;;;6.80;;
12908;SDS011;6522;49.622;6.126;2022-10-03T21:52:31;7.72;;;6.47;;
12908;SDS011;6522;49.622;6.126;2022-10-03T21:55:18;8.35;;;6.20;;
12908;SDS011;6522;49.622;6.126;2022-10-03T21:58:09;9.18;;;6.85;;
12908;SDS011;6522;49.622;6.126;2022-10-03T22:00:57;8.35;;;6.57;;
12908;SDS011;6522;49.622;6.126;2022-10-03T22:07:14;10.40;;;6.10;;
12908;SDS011;6522;49.622;6.126;2022-10-03T22:09:33;13.40;;;6.68;;
12908;SDS011;6522;49.622;6.126;2022-10-03T22:12:20;9.10;;;6.65;;
12908;SDS011;6522;49.622;6.126;2022-10-03T22:18:13;10.75;;;6.60;;
12908;SDS011;6522;49.622;6.126;2022-10-03T22:21:02;9.60;;;7.62;;
12908;SDS011;6522;49.622;6.126;2022-10-03T22:23:58;9.75;;;7.30;;
12908;SDS011;6522;49.622;6.126;2022-10-03T22:26:46;9.32;;;6.85;;
12908;SDS011;6522;49.622;6.126;2022-10-03T22:38:27;11.38;;;8.27;;
12908;SDS011;6522;49.622;6.126;2022-10-03T22:41:14;16.75;;;7.87;;
12908;SDS011;6522;49.622;6.126;2022-10-03T22:43:59;9.18;;;6.50;;
12908;SDS011;6522;49.622;6.126;2022-10-03T22:46:47;8.57;;;6.80;;
12908;SDS011;6522;49.622;6.126;2022-10-03T22:49:40;14.20;;;7.40;;
12908;SDS011;6522;49.622;6.126;2022-10-03T22:52:32;10.50;;;7.45;;
12908;SDS011;6522;49.622;6.126;2022-10-03T22:55:19;10.27;;;6.85;;
12908;SDS011;6522;49.622;6.126;2022-10-03T22:58:05;11.82;;;6.90;;
12908;SDS011;6522;49.622;6.126;2022-10-03T23:00:52;7.80;;;6.68;;
12908;SDS011;6522;49.622;6.126;2022-10-03T23:03:39;13.23;;;6.72;;
12908;SDS011;6522;49.622;6.126;2022-10-03T23:09:27;10.90;;;6.50;;
12908;SDS011;6522;49.622;6.126;2022-10-03T23:12:10;12.70;;;7.90;;
12908;SDS011;6522;49.622;6.126;2022-10-03T23:14:57;10.77;;;7.90;;
12908;SDS011;6522;49.622;6.126;2022-10-03T23:18:04;10.82;;;6.20;;
12908;SDS011;6522;49.622;6.126;2022-10-03T23:23:38;9.07;;;6.03;;
12908;SDS011;6522;49.622;6.126;2022-10-03T23:26:30;7.18;;;6.45;;
12908;SDS011;6522;49.622;6.126;2022-10-03T23:29:15;9.38;;;6.30;;
12908;SDS011;6522;49.622;6.126;2022-10-03T23:31:59;10.70;;;6.45;;
12908;SDS011;6522;49.622;6.126;2022-10-03T23:34:45;11.70;;;6.82;;
12908;SDS011;6522;49.622;6.126;2022-10-03T23:37:36;9.80;;;6.93;;
12908;SDS011;6522;49.622;6.126;2022-10-03T23:40:33;11.55;;;6.78;;
12908;SDS011;6522;49.622;6.126;2022-10-03T23:46:21;11.95;;;6.62;;
12908;SDS011;6522;49.622;6.126;2022-10-03T23:49:07;13.98;;;6.68;;
12908;SDS011;6522;49.622;6.126;2022-10-03T23:51:54;6.78;;;5.80;;
12908;SDS011;6522;49.622;6.126;2022-10-03T23:54:40;8.27;;;5.50;;
12908;SDS011;6522;49.622;6.126;2022-10-03T23:57:38;6.50;;;5.57;;
